createdAt,value
2023-05-21T00:01:16.533Z,98761.19
2023-05-21T00:03:46.074Z,98764.53
2023-05-21T00:06:15.596Z,98760.03
2023-05-21T00:08:44.610Z,98759.22
2023-05-21T00:11:12.679Z,98759.00
2023-05-21T00:13:42.064Z,98764.25
2023-05-21T00:16:11.404Z,98758.00
2023-05-21T00:18:40.412Z,98756.19
2023-05-21T00:21:08.514Z,98761.25
2023-05-21T00:23:37.731Z,98764.25
2023-05-21T00:26:05.826Z,98754.22
2023-05-21T00:28:33.955Z,98755.84
2023-05-21T00:31:03.385Z,98757.63
2023-05-21T00:33:31.416Z,98759.06
2023-05-21T00:36:00.259Z,98755.38
2023-05-21T00:38:28.970Z,98758.50
2023-05-21T00:40:57.165Z,98757.75
2023-05-21T00:43:26.624Z,98754.44
2023-05-21T00:45:56.619Z,98758.53
2023-05-21T00:48:26.795Z,98755.75
2023-05-21T00:50:56.041Z,98750.06
2023-05-21T00:53:24.086Z,98755.09
2023-05-21T00:55:52.329Z,98742.44
2023-05-21T00:58:20.605Z,98746.97
2023-05-21T01:00:48.926Z,98742.47
2023-05-21T01:03:17.470Z,98737.50
2023-05-21T01:05:47.125Z,98734.78
2023-05-21T01:08:15.231Z,98743.22
2023-05-21T01:10:44.536Z,98734.56
2023-05-21T01:13:12.717Z,98732.50
2023-05-21T01:15:41.146Z,98732.88
2023-05-21T01:18:09.630Z,98728.41
2023-05-21T01:20:39.354Z,98723.06
2023-05-21T01:23:09.122Z,98721.22
2023-05-21T01:25:37.753Z,98721.69
2023-05-21T01:28:06.301Z,98719.03
2023-05-21T01:30:34.831Z,98725.03
2023-05-21T01:33:04.956Z,98728.56
2023-05-21T01:35:36.607Z,98726.75
2023-05-21T01:38:15.653Z,98714.72
2023-05-21T01:40:49.025Z,98710.59
2023-05-21T01:43:17.665Z,98716.94
2023-05-21T01:45:47.568Z,98712.84
2023-05-21T01:48:17.473Z,98711.34
2023-05-21T01:50:47.158Z,98717.22
2023-05-21T01:53:17.389Z,98717.84
2023-05-21T01:55:46.128Z,98700.44
2023-05-21T01:58:15.825Z,98700.25
2023-05-21T02:00:45.550Z,98697.09
2023-05-21T02:03:14.819Z,98699.97
2023-05-21T02:05:43.017Z,98707.75
2023-05-21T02:08:11.345Z,98702.78
2023-05-21T02:10:40.754Z,98708.31
2023-05-21T02:13:08.923Z,98695.75
2023-05-21T02:15:37.211Z,98693.72
2023-05-21T02:18:05.671Z,98696.31
2023-05-21T02:20:33.760Z,98701.03
2023-05-21T02:23:01.876Z,98687.94
2023-05-21T02:25:29.966Z,98697.28
2023-05-21T02:27:59.598Z,98705.06
2023-05-21T02:30:28.014Z,98698.03
2023-05-21T02:32:59.012Z,98695.28
2023-05-21T02:35:27.301Z,98701.47
2023-05-21T02:37:59.182Z,98692.56
2023-05-21T02:40:27.499Z,98697.03
2023-05-21T02:42:55.517Z,98700.06
2023-05-21T02:45:25.037Z,98702.94
2023-05-21T02:47:54.098Z,98697.47
2023-05-21T02:50:22.878Z,98699.84
2023-05-21T02:53:00.417Z,98696.03
2023-05-21T02:55:29.382Z,98697.31
2023-05-21T02:57:57.524Z,98697.13
2023-05-21T03:00:27.074Z,98700.50
2023-05-21T03:02:55.486Z,98698.03
2023-05-21T03:05:24.492Z,98696.13
2023-05-21T03:07:53.416Z,98696.78
2023-05-21T03:10:22.132Z,98691.00
2023-05-21T03:12:50.161Z,98685.16
2023-05-21T03:15:23.993Z,98688.28
2023-05-21T03:17:54.419Z,98692.59
2023-05-21T03:20:24.555Z,98684.84
2023-05-21T03:22:52.985Z,98696.72
2023-05-21T03:25:21.669Z,98696.81
2023-05-21T03:27:49.845Z,98690.91
2023-05-21T03:30:36.764Z,98690.47
2023-05-21T03:33:29.171Z,98692.56
2023-05-21T03:35:57.360Z,98694.06
2023-05-21T03:38:27.918Z,98690.47
2023-05-21T03:40:56.263Z,98694.38
2023-05-21T03:43:24.684Z,98691.81
2023-05-21T03:45:52.924Z,98680.84
2023-05-21T03:48:51.788Z,98686.97
2023-05-21T03:51:23.152Z,98676.97
2023-05-21T03:53:51.293Z,98686.06
2023-05-21T03:56:19.749Z,98681.44
2023-05-21T03:58:48.680Z,98687.63
2023-05-21T04:01:17.805Z,98687.09
2023-05-21T04:03:46.664Z,98688.66
2023-05-21T04:06:19.121Z,98677.28
2023-05-21T04:08:48.138Z,98686.75
2023-05-21T04:11:16.351Z,98690.66
2023-05-21T04:13:44.419Z,98691.97
2023-05-21T04:16:14.822Z,98686.72
2023-05-21T04:18:45.545Z,98690.44
2023-05-21T04:21:15.186Z,98697.72
2023-05-21T04:23:44.674Z,98694.53
2023-05-21T04:26:22.903Z,98696.41
2023-05-21T04:28:51.280Z,98697.41
2023-05-21T04:31:19.412Z,98697.63
2023-05-21T04:33:47.591Z,98696.19
2023-05-21T04:36:17.528Z,98692.72
2023-05-21T04:38:50.157Z,98695.97
2023-05-21T04:41:19.161Z,98688.78
2023-05-21T04:43:47.280Z,98699.53
2023-05-21T04:46:16.798Z,98694.53
2023-05-21T04:48:45.231Z,98695.59
2023-05-21T04:51:15.167Z,98697.03
2023-05-21T04:53:43.585Z,98694.94
2023-05-21T04:56:13.089Z,98692.53
2023-05-21T04:58:41.738Z,98694.97
2023-05-21T05:01:10.021Z,98696.94
2023-05-21T05:03:38.250Z,98693.66
2023-05-21T05:06:08.281Z,98691.94
2023-05-21T05:08:37.277Z,98688.38
2023-05-21T05:11:06.309Z,98691.25
2023-05-21T05:13:36.046Z,98694.31
2023-05-21T05:16:04.182Z,98694.97
2023-05-21T05:18:32.310Z,98702.63
2023-05-21T05:21:01.278Z,98699.72
2023-05-21T05:23:29.398Z,98693.19
2023-05-21T05:25:57.652Z,98702.19
2023-05-21T05:28:25.873Z,98703.66
2023-05-21T05:30:55.345Z,98705.53
2023-05-21T05:33:26.078Z,98703.19
2023-05-21T05:35:54.664Z,98695.53
2023-05-21T05:38:22.841Z,98696.47
2023-05-21T05:40:50.889Z,98700.25
2023-05-21T05:43:19.210Z,98689.28
2023-05-21T05:45:48.341Z,98696.38
2023-05-21T05:48:17.984Z,98694.41
2023-05-21T05:50:46.578Z,98694.75
2023-05-21T05:53:15.448Z,98690.38
2023-05-21T05:55:43.525Z,98686.09
2023-05-21T05:58:11.684Z,98680.72
2023-05-21T06:00:56.826Z,98676.91
2023-05-21T06:03:28.226Z,98683.97
2023-05-21T06:05:56.711Z,98679.19
2023-05-21T06:08:25.630Z,98680.41
2023-05-21T06:10:53.868Z,98684.94
2023-05-21T06:13:21.990Z,98683.75
2023-05-21T06:15:50.330Z,98679.09
2023-05-21T06:18:18.549Z,98680.41
2023-05-21T06:20:47.956Z,98680.41
2023-05-21T06:23:16.830Z,98675.34
2023-05-21T06:25:46.745Z,98678.66
2023-05-21T06:28:15.777Z,98670.34
2023-05-21T06:30:43.998Z,98681.59
2023-05-21T06:33:12.804Z,98675.97
2023-05-21T06:35:41.217Z,98682.63
2023-05-21T06:38:12.791Z,98679.66
2023-05-21T06:40:40.897Z,98673.13
2023-05-21T06:43:13.202Z,98675.28
2023-05-21T06:46:01.614Z,98672.81
2023-05-21T06:48:39.491Z,98665.59
2023-05-21T06:51:07.777Z,98669.41
2023-05-21T06:53:37.237Z,98663.22
2023-05-21T06:56:05.992Z,98666.84
2023-05-21T06:58:39.793Z,98668.16
2023-05-21T07:01:07.986Z,98657.38
2023-05-21T07:03:37.530Z,98659.00
2023-05-21T07:06:05.623Z,98658.50
2023-05-21T07:08:33.903Z,98658.69
2023-05-21T07:11:04.025Z,98655.53
2023-05-21T07:13:32.097Z,98651.56
2023-05-21T07:16:00.124Z,98658.03
2023-05-21T07:18:29.003Z,98649.63
2023-05-21T07:20:57.888Z,98647.31
2023-05-21T07:23:26.635Z,98649.13
2023-05-21T07:25:54.880Z,98650.09
2023-05-21T07:28:24.782Z,98659.88
2023-05-21T07:30:53.028Z,98646.00
2023-05-21T07:33:28.886Z,98647.28
2023-05-21T07:35:56.944Z,98652.63
2023-05-21T07:38:25.138Z,98646.75
2023-05-21T07:40:53.326Z,98645.19
2023-05-21T07:43:21.997Z,98650.78
2023-05-21T07:45:51.886Z,98651.34
2023-05-21T07:48:20.229Z,98645.91
2023-05-21T07:50:56.690Z,98636.50
2023-05-21T07:53:24.870Z,98638.97
2023-05-21T07:55:53.627Z,98639.91
2023-05-21T07:58:26.448Z,98644.59
2023-05-21T08:00:57.389Z,98646.09
2023-05-21T08:03:30.929Z,98639.94
2023-05-21T08:05:59.235Z,98637.09
2023-05-21T08:08:27.962Z,98636.91
2023-05-21T08:10:57.939Z,98641.75
2023-05-21T08:13:28.033Z,98647.63
2023-05-21T08:15:57.842Z,98648.19
2023-05-21T08:18:27.509Z,98640.09
2023-05-21T08:20:57.700Z,98640.41
2023-05-21T08:23:27.282Z,98632.50
2023-05-21T08:25:57.608Z,98642.25
2023-05-21T08:28:27.614Z,98634.13
2023-05-21T08:30:57.695Z,98639.06
2023-05-21T08:33:26.546Z,98642.63
2023-05-21T08:35:55.039Z,98638.19
2023-05-21T08:38:36.488Z,98625.16
2023-05-21T08:41:14.216Z,98628.41
2023-05-21T08:43:49.898Z,98622.78
2023-05-21T08:46:24.153Z,98629.06
2023-05-21T08:48:55.000Z,98624.03
2023-05-21T08:51:23.814Z,98621.06
2023-05-21T08:53:54.372Z,98622.66
2023-05-21T08:56:22.905Z,98618.75
2023-05-21T08:58:55.073Z,98624.84
2023-05-21T09:01:27.474Z,98617.00
2023-05-21T09:04:19.792Z,98620.63
2023-05-21T09:06:51.576Z,98625.41
2023-05-21T09:09:34.056Z,98623.66
2023-05-21T09:12:02.605Z,98621.44
2023-05-21T09:14:31.712Z,98616.03
2023-05-21T09:17:16.269Z,98628.75
2023-05-21T09:20:14.925Z,98624.03
2023-05-21T09:23:12.511Z,98627.09
2023-05-21T09:25:42.095Z,98622.16
2023-05-21T09:28:15.388Z,98618.91
2023-05-21T09:30:47.606Z,98619.53
2023-05-21T09:33:29.562Z,98615.34
2023-05-21T09:35:58.074Z,98622.47
2023-05-21T09:38:28.121Z,98607.41
2023-05-21T09:40:57.325Z,98614.19
2023-05-21T09:43:26.531Z,98613.81
2023-05-21T09:45:58.983Z,98607.13
2023-05-21T09:48:37.079Z,98608.47
2023-05-21T09:51:16.058Z,98607.28
2023-05-21T09:53:46.021Z,98613.00
2023-05-21T09:56:14.405Z,98613.06
2023-05-21T09:58:42.569Z,98610.94
2023-05-21T10:01:12.275Z,98603.97
2023-05-21T10:03:43.104Z,98604.13
2023-05-21T10:06:12.314Z,98609.81
2023-05-21T10:08:46.123Z,98603.13
2023-05-21T10:11:15.527Z,98604.19
2023-05-21T10:13:50.143Z,98606.50
2023-05-21T10:16:19.459Z,98606.50
2023-05-21T10:18:49.801Z,98602.44
2023-05-21T10:21:18.464Z,98593.88
2023-05-21T10:23:47.588Z,98588.06
2023-05-21T10:26:16.528Z,98594.94
2023-05-21T10:28:45.460Z,98593.94
2023-05-21T10:31:14.341Z,98595.78
2023-05-21T10:33:43.679Z,98598.63
2023-05-21T10:36:13.568Z,98588.00
2023-05-21T10:38:44.281Z,98591.75
2023-05-21T10:41:14.410Z,98584.84
2023-05-21T10:44:05.997Z,98592.72
2023-05-21T10:47:01.785Z,98584.16
2023-05-21T10:49:47.339Z,98581.16
2023-05-21T10:52:32.908Z,98581.47
2023-05-21T10:55:13.972Z,98578.56
2023-05-21T10:58:20.902Z,98577.38
2023-05-21T11:00:49.783Z,98572.34
2023-05-21T11:03:18.486Z,98584.91
2023-05-21T11:05:53.758Z,98579.94
2023-05-21T11:08:27.377Z,98578.41
2023-05-21T11:10:58.125Z,98579.59
2023-05-21T11:13:27.058Z,98565.78
2023-05-21T11:16:08.491Z,98560.84
2023-05-21T11:19:01.827Z,98556.47
2023-05-21T11:21:36.150Z,98557.59
2023-05-21T11:24:08.478Z,98556.94
2023-05-21T11:27:04.721Z,98552.41
2023-05-21T11:29:41.613Z,98562.47
2023-05-21T11:32:11.100Z,98561.81
2023-05-21T11:34:46.032Z,98553.81
2023-05-21T11:37:27.735Z,98556.06
2023-05-21T11:39:58.525Z,98555.66
2023-05-21T11:42:31.241Z,98547.13
2023-05-21T11:45:00.209Z,98548.34
2023-05-21T11:47:29.288Z,98555.44
2023-05-21T11:49:58.031Z,98554.56
2023-05-21T11:52:26.952Z,98553.75
2023-05-21T11:54:56.977Z,98557.94
2023-05-21T11:57:30.935Z,98552.69
2023-05-21T12:00:01.457Z,98554.94
2023-05-21T12:02:34.556Z,98545.28
2023-05-21T12:05:02.768Z,98539.72
2023-05-21T12:07:31.424Z,98535.31
2023-05-21T12:09:59.766Z,98530.00
2023-05-21T12:12:38.502Z,98539.50
2023-05-21T12:15:12.578Z,98538.28
2023-05-21T12:17:41.202Z,98541.28
2023-05-21T12:20:10.866Z,98539.72
2023-05-21T12:22:43.285Z,98551.13
2023-05-21T12:25:12.245Z,98551.38
2023-05-21T12:27:45.172Z,98549.75
2023-05-21T12:30:13.882Z,98541.03
2023-05-21T12:32:44.529Z,98550.19
2023-05-21T12:35:22.886Z,98548.16
2023-05-21T12:37:52.140Z,98545.72
2023-05-21T12:40:21.284Z,98546.88
2023-05-21T12:42:51.078Z,98544.16
2023-05-21T12:45:21.146Z,98544.66
2023-05-21T12:47:50.793Z,98535.03
2023-05-21T12:50:22.252Z,98533.75
2023-05-21T12:52:50.347Z,98538.00
2023-05-21T12:55:18.598Z,98526.13
2023-05-21T12:57:47.054Z,98536.63
2023-05-21T13:00:24.465Z,98533.91
2023-05-21T13:02:52.966Z,98535.34
2023-05-21T13:05:21.047Z,98521.84
2023-05-21T13:07:51.600Z,98522.88
2023-05-21T13:10:19.938Z,98529.41
2023-05-21T13:12:48.223Z,98527.25
2023-05-21T13:15:17.800Z,98529.81
2023-05-21T13:17:47.252Z,98523.66
2023-05-21T13:20:20.109Z,98524.22
2023-05-21T13:22:50.670Z,98525.41
2023-05-21T13:25:21.433Z,98518.91
2023-05-21T13:27:51.330Z,98523.94
2023-05-21T13:30:21.978Z,98518.56
2023-05-21T13:32:50.430Z,98513.56
2023-05-21T13:35:18.671Z,98507.53
2023-05-21T13:37:46.902Z,98517.75
2023-05-21T13:40:16.842Z,98504.97
2023-05-21T13:42:49.121Z,98504.19
2023-05-21T13:45:21.925Z,98504.41
2023-05-21T13:47:50.208Z,98494.38
2023-05-21T13:50:18.516Z,98495.09
2023-05-21T13:52:47.276Z,98500.69
2023-05-21T13:55:15.951Z,98503.19
2023-05-21T13:57:44.624Z,98500.31
2023-05-21T14:00:16.116Z,98494.78
2023-05-21T14:02:46.000Z,98491.44
2023-05-21T14:05:14.628Z,98500.44
2023-05-21T14:07:43.046Z,98486.22
2023-05-21T14:10:12.134Z,98482.97
2023-05-21T14:12:40.857Z,98484.34
2023-05-21T14:15:10.054Z,98480.34
2023-05-21T14:17:40.324Z,98491.53
2023-05-21T14:20:11.090Z,98486.50
2023-05-21T14:22:39.652Z,98485.50
2023-05-21T14:25:08.353Z,98495.31
2023-05-21T14:27:38.030Z,98485.31
2023-05-21T14:30:07.077Z,98490.88
2023-05-21T14:32:35.209Z,98484.13
2023-05-21T14:35:03.388Z,98493.34
2023-05-21T14:37:32.947Z,98480.19
2023-05-21T14:40:00.972Z,98483.47
2023-05-21T14:42:29.065Z,98487.78
2023-05-21T14:44:58.882Z,98492.28
2023-05-21T14:47:27.241Z,98479.66
2023-05-21T14:49:55.273Z,98487.84
2023-05-21T14:52:23.396Z,98487.75
2023-05-21T14:54:52.850Z,98482.78
2023-05-21T14:57:20.931Z,98484.91
2023-05-21T14:59:49.001Z,98483.47
2023-05-21T15:02:17.199Z,98485.59
2023-05-21T15:04:45.280Z,98484.44
2023-05-21T15:07:13.420Z,98487.47
2023-05-21T15:09:41.578Z,98490.91
2023-05-21T15:12:11.100Z,98482.31
2023-05-21T15:14:39.236Z,98487.25
2023-05-21T15:17:07.764Z,98486.59
2023-05-21T15:19:36.122Z,98477.72
2023-05-21T15:22:04.297Z,98483.41
2023-05-21T15:24:32.338Z,98480.06
2023-05-21T15:27:00.422Z,98480.66
2023-05-21T15:29:29.841Z,98472.84
2023-05-21T15:31:58.439Z,98468.44
2023-05-21T15:34:26.742Z,98469.50
2023-05-21T15:36:54.831Z,98473.31
2023-05-21T15:39:22.978Z,98466.41
2023-05-21T15:41:52.193Z,98457.59
2023-05-21T15:44:20.251Z,98460.81
2023-05-21T15:46:50.228Z,98460.41
2023-05-21T15:49:18.714Z,98455.16
2023-05-21T15:51:48.591Z,98464.09
2023-05-21T15:54:17.016Z,98463.16
2023-05-21T15:56:45.966Z,98466.53
2023-05-21T15:59:14.437Z,98455.41
2023-05-21T16:01:42.683Z,98465.81
2023-05-21T16:04:12.285Z,98461.75
2023-05-21T16:06:40.897Z,98471.09
2023-05-21T16:09:08.973Z,98461.41
2023-05-21T16:11:38.650Z,98461.00
2023-05-21T16:14:06.686Z,98469.41
2023-05-21T16:16:35.958Z,98461.13
2023-05-21T16:19:06.595Z,98461.47
2023-05-21T16:21:36.362Z,98459.88
2023-05-21T16:24:04.758Z,98455.53
2023-05-21T16:26:32.814Z,98462.81
2023-05-21T16:29:02.259Z,98454.72
2023-05-21T16:31:30.570Z,98460.03
2023-05-21T16:33:58.619Z,98456.72
2023-05-21T16:36:26.689Z,98456.47
2023-05-21T16:38:56.142Z,98465.00
2023-05-21T16:41:24.281Z,98463.94
2023-05-21T16:43:56.194Z,98463.19
2023-05-21T16:46:25.738Z,98454.91
2023-05-21T16:48:53.919Z,98461.97
2023-05-21T16:51:22.356Z,98452.31
2023-05-21T16:53:50.459Z,98464.28
2023-05-21T16:56:19.990Z,98459.44
2023-05-21T16:58:48.158Z,98464.78
2023-05-21T17:01:16.253Z,98462.13
2023-05-21T17:03:44.481Z,98461.34
2023-05-21T17:06:13.948Z,98461.31
2023-05-21T17:08:42.547Z,98463.78
2023-05-21T17:11:10.683Z,98466.50
2023-05-21T17:13:40.167Z,98467.69
2023-05-21T17:16:08.263Z,98469.97
2023-05-21T17:18:36.315Z,98464.25
2023-05-21T17:21:04.369Z,98467.25
2023-05-21T17:23:32.482Z,98466.25
2023-05-21T17:26:01.652Z,98462.59
2023-05-21T17:28:29.743Z,98464.84
2023-05-21T17:30:59.455Z,98457.28
2023-05-21T17:33:28.242Z,98464.06
2023-05-21T17:35:57.014Z,98460.78
2023-05-21T17:38:25.120Z,98477.06
2023-05-21T17:40:53.227Z,98457.44
2023-05-21T17:43:21.277Z,98470.19
2023-05-21T17:45:49.465Z,98459.50
2023-05-21T17:48:18.896Z,98463.09
2023-05-21T17:50:47.065Z,98466.78
2023-05-21T17:53:15.985Z,98468.81
2023-05-21T17:55:44.041Z,98472.25
2023-05-21T17:58:12.257Z,98468.69
2023-05-21T18:00:40.437Z,98469.28
2023-05-21T18:03:08.729Z,98474.63
2023-05-21T18:05:38.608Z,98479.69
2023-05-21T18:08:09.831Z,98481.88
2023-05-21T18:10:38.088Z,98476.97
2023-05-21T18:13:06.149Z,98474.88
2023-05-21T18:15:34.633Z,98480.25
2023-05-21T18:18:03.596Z,98476.94
2023-05-21T18:20:31.790Z,98483.22
2023-05-21T18:23:01.188Z,98472.50
2023-05-21T18:25:29.326Z,98479.09
2023-05-21T18:27:57.520Z,98482.88
2023-05-21T18:30:25.546Z,98478.81
2023-05-21T18:32:53.716Z,98479.34
2023-05-21T18:35:21.935Z,98487.53
2023-05-21T18:37:50.000Z,98489.59
2023-05-21T18:40:21.348Z,98482.66
2023-05-21T18:42:49.470Z,98485.28
2023-05-21T18:45:17.590Z,98478.72
2023-05-21T18:47:45.740Z,98484.47
2023-05-21T18:50:15.437Z,98482.31
2023-05-21T18:52:43.666Z,98490.22
2023-05-21T18:55:11.688Z,98486.75
2023-05-21T18:57:41.304Z,98491.56
2023-05-21T19:00:11.510Z,98493.53
2023-05-21T19:02:39.884Z,98497.88
2023-05-21T19:05:08.838Z,98496.78
2023-05-21T19:07:37.332Z,98493.97
2023-05-21T19:10:06.381Z,98497.34
2023-05-21T19:12:36.255Z,98493.38
2023-05-21T19:15:06.462Z,98503.19
2023-05-21T19:17:36.169Z,98505.03
2023-05-21T19:20:05.549Z,98502.38
2023-05-21T19:22:33.932Z,98507.97
2023-05-21T19:25:02.117Z,98515.88
2023-05-21T19:27:34.938Z,98511.16
2023-05-21T19:30:11.595Z,98501.28
2023-05-21T19:32:39.732Z,98505.19
2023-05-21T19:35:08.927Z,98509.88
2023-05-21T19:37:37.068Z,98497.84
2023-05-21T19:40:06.175Z,98504.31
2023-05-21T19:42:34.361Z,98505.03
2023-05-21T19:45:03.627Z,98500.31
2023-05-21T19:47:33.406Z,98500.78
2023-05-21T19:50:01.733Z,98495.31
2023-05-21T19:52:30.271Z,98494.63
2023-05-21T19:55:04.365Z,98490.31
2023-05-21T19:57:32.695Z,98487.13
2023-05-21T20:00:00.854Z,98486.38
2023-05-21T20:02:29.319Z,98495.22
2023-05-21T20:04:59.244Z,98480.06
2023-05-21T20:07:27.392Z,98486.94
2023-05-21T20:09:55.502Z,98477.72
2023-05-21T20:12:23.701Z,98481.81
2023-05-21T20:14:53.670Z,98478.78
2023-05-21T20:17:21.835Z,98482.00
2023-05-21T20:19:50.069Z,98481.09
2023-05-21T20:22:26.909Z,98484.66
2023-05-21T20:25:03.483Z,98477.94
2023-05-21T20:27:34.555Z,98483.84
2023-05-21T20:30:02.817Z,98477.31
2023-05-21T20:32:30.914Z,98483.59
2023-05-21T20:35:03.231Z,98485.50
2023-05-21T20:37:33.996Z,98488.81
2023-05-21T20:40:02.206Z,98490.78
2023-05-21T20:42:34.695Z,98492.28
2023-05-21T20:45:03.165Z,98505.75
2023-05-21T20:47:31.441Z,98508.31
2023-05-21T20:50:02.878Z,98505.53
2023-05-21T20:52:30.935Z,98499.66
2023-05-21T20:55:00.593Z,98500.94
2023-05-21T20:57:29.359Z,98497.50
2023-05-21T20:59:57.675Z,98499.38
2023-05-21T21:02:25.849Z,98494.00
2023-05-21T21:04:54.106Z,98500.78
2023-05-21T21:07:22.393Z,98505.13
2023-05-21T21:09:50.630Z,98501.25
2023-05-21T21:12:25.124Z,98496.28
2023-05-21T21:14:54.103Z,98503.53
2023-05-21T21:17:22.267Z,98501.78
2023-05-21T21:19:50.449Z,98497.38
2023-05-21T21:22:18.717Z,98501.38
2023-05-21T21:24:46.845Z,98498.75
2023-05-21T21:27:14.940Z,98501.22
2023-05-21T21:29:44.380Z,98501.69
2023-05-21T21:32:12.997Z,98506.41
2023-05-21T21:34:41.110Z,98494.59
2023-05-21T21:37:09.180Z,98495.44
2023-05-21T21:39:37.293Z,98503.50
2023-05-21T21:42:05.863Z,98497.78
2023-05-21T21:44:33.857Z,98497.88
2023-05-21T21:47:03.350Z,98495.38
2023-05-21T21:49:31.393Z,98500.38
2023-05-21T21:51:59.600Z,98497.16
2023-05-21T21:54:28.249Z,98497.03
2023-05-21T21:56:56.345Z,98497.78
2023-05-21T21:59:24.378Z,98501.75
2023-05-21T22:01:52.616Z,98498.94
2023-05-21T22:04:22.161Z,98500.75
2023-05-21T22:06:50.570Z,98496.31
2023-05-21T22:09:18.754Z,98497.97
2023-05-21T22:11:46.970Z,98497.56
2023-05-21T22:14:15.623Z,98493.59
2023-05-21T22:16:43.781Z,98493.81
2023-05-21T22:19:12.970Z,98497.97
2023-05-21T22:21:43.322Z,98495.59
2023-05-21T22:24:24.108Z,98502.84
2023-05-21T22:26:59.480Z,98494.84
2023-05-21T22:29:27.730Z,98487.94
2023-05-21T22:31:55.867Z,98493.78
2023-05-21T22:34:25.354Z,98496.38
2023-05-21T22:36:55.029Z,98497.13
2023-05-21T22:39:23.145Z,98492.78
2023-05-21T22:41:51.222Z,98495.56
2023-05-21T22:44:19.434Z,98490.41
2023-05-21T22:46:47.830Z,98491.53
2023-05-21T22:49:16.537Z,98479.41
2023-05-21T22:51:46.401Z,98484.44
2023-05-21T22:54:16.169Z,98477.13
2023-05-21T22:56:45.028Z,98474.56
2023-05-21T22:59:13.128Z,98478.66
2023-05-21T23:01:41.471Z,98473.09
2023-05-21T23:04:09.486Z,98472.31
2023-05-21T23:06:37.587Z,98469.53
2023-05-21T23:09:06.088Z,98468.00
2023-05-21T23:11:35.748Z,98468.47
2023-05-21T23:14:03.819Z,98475.84
2023-05-21T23:16:32.343Z,98474.91
2023-05-21T23:19:00.708Z,98477.19
2023-05-21T23:21:28.859Z,98471.16
2023-05-21T23:23:56.982Z,98468.88
2023-05-21T23:26:25.727Z,98468.59
2023-05-21T23:28:55.141Z,98471.28
2023-05-21T23:31:23.472Z,98465.78
2023-05-21T23:33:51.961Z,98461.47
2023-05-21T23:36:20.239Z,98470.38
2023-05-21T23:38:48.307Z,98464.28
2023-05-21T23:41:16.498Z,98470.16
2023-05-21T23:43:44.559Z,98470.47
2023-05-21T23:46:14.105Z,98474.06
2023-05-21T23:48:42.245Z,98467.59
2023-05-21T23:51:10.402Z,98469.03
2023-05-21T23:53:38.518Z,98459.31
2023-05-21T23:56:07.117Z,98467.50
2023-05-21T23:58:35.248Z,98466.94
